createdAt,value
2023-07-25T00:00:09.081Z,3.75
2023-07-25T00:00:20.912Z,3.50
2023-07-25T00:00:32.674Z,2.92
2023-07-25T00:00:44.412Z,2.80
2023-07-25T00:00:56.139Z,2.65
2023-07-25T00:01:08.948Z,2.88
2023-07-25T00:01:21.735Z,3.78
2023-07-25T00:01:33.715Z,3.50
2023-07-25T00:01:45.890Z,2.72
2023-07-25T00:01:57.905Z,2.95
2023-07-25T00:02:09.719Z,3.15
2023-07-25T00:02:21.510Z,3.63
2023-07-25T00:02:33.235Z,3.40
2023-07-25T00:02:44.944Z,2.70
2023-07-25T00:02:56.677Z,2.72
2023-07-25T00:03:08.492Z,2.78
2023-07-25T00:03:20.178Z,3.60
2023-07-25T00:03:33.040Z,3.80
2023-07-25T00:03:44.781Z,3.90
2023-07-25T00:03:56.551Z,3.20
2023-07-25T00:04:09.285Z,3.30
2023-07-25T00:04:21.085Z,3.10
2023-07-25T00:04:32.788Z,3.13
2023-07-25T00:04:44.495Z,3.85
2023-07-25T00:04:57.570Z,3.92
2023-07-25T00:05:11.521Z,3.20
2023-07-25T00:05:23.210Z,3.95
2023-07-25T00:05:36.130Z,4.05
2023-07-25T00:05:47.851Z,3.40
2023-07-25T00:06:01.681Z,3.72
2023-07-25T00:06:13.362Z,3.83
2023-07-25T00:06:25.076Z,3.55
2023-07-25T00:06:36.829Z,3.53
2023-07-25T00:06:48.519Z,3.35
2023-07-25T00:07:01.163Z,3.20
2023-07-25T00:07:12.928Z,2.97
2023-07-25T00:07:24.904Z,3.10
2023-07-25T00:07:36.574Z,3.10
2023-07-25T00:07:48.756Z,3.63
2023-07-25T00:08:00.433Z,4.22
2023-07-25T00:08:12.188Z,4.20
2023-07-25T00:08:23.957Z,3.42
2023-07-25T00:08:35.822Z,3.15
2023-07-25T00:08:48.853Z,3.10
2023-07-25T00:09:00.704Z,3.55
2023-07-25T00:09:12.374Z,3.70
2023-07-25T00:09:24.072Z,3.28
2023-07-25T00:09:35.760Z,2.80
2023-07-25T00:09:47.451Z,2.92
2023-07-25T00:09:59.447Z,2.90
2023-07-25T00:10:11.168Z,3.13
2023-07-25T00:10:22.952Z,3.10
2023-07-25T00:10:34.976Z,2.92
2023-07-25T00:10:46.644Z,3.30
2023-07-25T00:10:59.388Z,3.60
2023-07-25T00:11:13.904Z,3.47
2023-07-25T00:11:25.619Z,3.08
2023-07-25T00:11:37.336Z,3.30
2023-07-25T00:11:49.048Z,3.22
2023-07-25T00:12:00.712Z,3.70
2023-07-25T00:12:12.407Z,4.00
2023-07-25T00:12:24.253Z,4.43
2023-07-25T00:12:36.021Z,4.00
2023-07-25T00:12:47.708Z,3.80
2023-07-25T00:13:00.375Z,3.53
2023-07-25T00:13:12.083Z,3.58
2023-07-25T00:13:23.793Z,3.70
2023-07-25T00:13:35.515Z,3.60
2023-07-25T00:13:47.245Z,3.90
2023-07-25T00:13:58.953Z,3.88
2023-07-25T00:14:10.651Z,3.60
2023-07-25T00:14:22.441Z,3.60
2023-07-25T00:14:35.938Z,3.30
2023-07-25T00:14:47.719Z,3.42
2023-07-25T00:14:59.395Z,3.70
2023-07-25T00:15:11.773Z,3.60
2023-07-25T00:15:23.486Z,3.42
2023-07-25T00:15:35.231Z,3.65
2023-07-25T00:15:46.916Z,3.85
2023-07-25T00:15:58.797Z,4.20
2023-07-25T00:16:10.514Z,3.90
2023-07-25T00:16:23.254Z,3.83
2023-07-25T00:16:35.064Z,3.80
2023-07-25T00:16:47.091Z,3.75
2023-07-25T00:16:58.913Z,4.32
2023-07-25T00:17:10.669Z,4.53
2023-07-25T00:17:22.478Z,4.00
2023-07-25T00:17:34.272Z,3.92
2023-07-25T00:17:46.054Z,4.18
2023-07-25T00:17:58.087Z,4.07
2023-07-25T00:18:09.877Z,3.60
2023-07-25T00:18:22.565Z,3.70
2023-07-25T00:18:35.376Z,3.85
2023-07-25T00:18:47.093Z,4.00
2023-07-25T00:18:58.787Z,4.43
2023-07-25T00:19:10.465Z,4.32
2023-07-25T00:19:22.188Z,3.95
2023-07-25T00:19:33.914Z,3.90
2023-07-25T00:19:46.618Z,3.95
2023-07-25T00:19:59.703Z,3.70
2023-07-25T00:20:12.035Z,4.38
2023-07-25T00:20:23.776Z,4.43
2023-07-25T00:20:35.517Z,4.43
2023-07-25T00:20:47.255Z,5.00
2023-07-25T00:20:59.047Z,4.82
2023-07-25T00:21:10.850Z,4.55
2023-07-25T00:21:23.602Z,4.38
2023-07-25T00:21:35.572Z,4.63
2023-07-25T00:21:47.665Z,5.45
2023-07-25T00:21:59.450Z,5.38
2023-07-25T00:22:11.869Z,5.10
2023-07-25T00:22:23.907Z,4.65
2023-07-25T00:22:35.645Z,4.50
2023-07-25T00:22:47.412Z,4.25
2023-07-25T00:22:59.116Z,4.45
2023-07-25T00:23:11.804Z,4.35
2023-07-25T00:23:23.514Z,4.32
2023-07-25T00:23:35.224Z,4.50
2023-07-25T00:23:46.920Z,4.45
2023-07-25T00:23:58.640Z,4.47
2023-07-25T00:24:10.328Z,5.05
2023-07-25T00:24:22.055Z,4.90
2023-07-25T00:24:34.811Z,4.40
2023-07-25T00:24:46.730Z,4.35
2023-07-25T00:24:58.498Z,4.93
2023-07-25T00:25:11.180Z,4.30
2023-07-25T00:25:23.327Z,3.70
2023-07-25T00:25:35.192Z,4.00
2023-07-25T00:25:46.948Z,4.28
2023-07-25T00:25:58.692Z,4.05
2023-07-25T00:26:10.446Z,4.93
2023-07-25T00:26:22.155Z,4.95
2023-07-25T00:26:34.880Z,4.57
2023-07-25T00:26:46.586Z,5.05
2023-07-25T00:26:58.273Z,5.13
2023-07-25T00:27:09.981Z,4.32
2023-07-25T00:27:21.751Z,4.15
2023-07-25T00:27:33.483Z,4.10
2023-07-25T00:27:45.202Z,4.13
2023-07-25T00:27:56.914Z,4.25
2023-07-25T00:28:08.606Z,4.20
2023-07-25T00:28:23.483Z,4.45
2023-07-25T00:28:35.235Z,4.75
2023-07-25T00:28:47.041Z,4.85
2023-07-25T00:28:58.740Z,4.57
2023-07-25T00:29:10.572Z,4.32
2023-07-25T00:29:22.437Z,4.25
2023-07-25T00:29:34.130Z,4.03
2023-07-25T00:29:45.865Z,3.97
2023-07-25T00:29:58.709Z,4.22
2023-07-25T00:30:11.076Z,4.22
2023-07-25T00:30:22.946Z,4.73
2023-07-25T00:30:34.717Z,4.97
2023-07-25T00:30:46.410Z,4.40
2023-07-25T00:30:58.081Z,4.55
2023-07-25T00:31:09.836Z,4.57
2023-07-25T00:31:22.571Z,5.00
2023-07-25T00:31:34.599Z,4.28
2023-07-25T00:31:46.631Z,4.07
2023-07-25T00:31:58.354Z,3.92
2023-07-25T00:32:10.301Z,4.53
2023-07-25T00:32:22.080Z,4.70
2023-07-25T00:32:34.980Z,5.07
2023-07-25T00:32:46.728Z,5.80
2023-07-25T00:32:58.493Z,6.40
2023-07-25T00:33:10.324Z,6.75
2023-07-25T00:33:22.095Z,6.45
2023-07-25T00:33:34.823Z,6.07
2023-07-25T00:33:46.518Z,5.35
2023-07-25T00:33:58.232Z,5.60
2023-07-25T00:34:09.929Z,5.97
2023-07-25T00:34:21.641Z,5.57
2023-07-25T00:34:33.352Z,5.07
2023-07-25T00:34:45.055Z,5.43
2023-07-25T00:34:56.738Z,6.10
2023-07-25T00:35:09.929Z,5.45
2023-07-25T00:35:21.609Z,5.70
2023-07-25T00:35:34.283Z,5.95
2023-07-25T00:35:52.205Z,5.30
2023-07-25T00:36:04.439Z,5.13
2023-07-25T00:36:16.147Z,5.22
2023-07-25T00:36:27.929Z,5.15
2023-07-25T00:36:39.681Z,5.30
2023-07-25T00:36:51.550Z,5.55
2023-07-25T00:37:03.409Z,5.65
2023-07-25T00:37:15.119Z,5.55
2023-07-25T00:37:28.833Z,5.40
2023-07-25T00:37:41.502Z,4.93
2023-07-25T00:37:53.239Z,5.28
2023-07-25T00:38:05.329Z,5.28
2023-07-25T00:38:17.010Z,5.38
2023-07-25T00:38:28.683Z,5.28
2023-07-25T00:38:40.421Z,5.28
2023-07-25T00:38:52.146Z,5.22
2023-07-25T00:39:03.996Z,5.65
2023-07-25T00:39:15.692Z,5.35
2023-07-25T00:39:28.380Z,5.25
2023-07-25T00:39:40.089Z,5.40
2023-07-25T00:39:53.652Z,5.30
2023-07-25T00:40:06.587Z,4.93
2023-07-25T00:40:18.316Z,4.68
2023-07-25T00:40:30.035Z,4.50
2023-07-25T00:40:41.740Z,4.90
2023-07-25T00:40:53.444Z,5.68
2023-07-25T00:41:06.203Z,5.57
2023-07-25T00:41:17.981Z,5.38
2023-07-25T00:41:29.899Z,4.95
2023-07-25T00:41:41.833Z,4.60
2023-07-25T00:41:53.571Z,4.60
2023-07-25T00:42:06.157Z,4.78
2023-07-25T00:42:18.045Z,4.70
2023-07-25T00:42:29.787Z,4.97
2023-07-25T00:42:41.708Z,5.28
2023-07-25T00:42:56.528Z,5.22
2023-07-25T00:43:09.199Z,5.20
2023-07-25T00:43:20.908Z,4.75
2023-07-25T00:43:32.618Z,4.93
2023-07-25T00:43:44.410Z,5.53
2023-07-25T00:43:56.110Z,5.57
2023-07-25T00:44:07.932Z,4.90
2023-07-25T00:44:19.602Z,5.68
2023-07-25T00:44:31.307Z,5.95
2023-07-25T00:44:44.034Z,5.07
2023-07-25T00:44:55.715Z,4.57
2023-07-25T00:45:09.104Z,4.28
2023-07-25T00:45:20.817Z,4.18
2023-07-25T00:45:32.648Z,4.53
2023-07-25T00:45:44.658Z,4.70
2023-07-25T00:45:56.476Z,4.95
2023-07-25T00:46:08.507Z,4.97
2023-07-25T00:46:20.398Z,5.38
2023-07-25T00:46:33.224Z,5.65
2023-07-25T00:46:45.301Z,4.95
2023-07-25T00:46:56.999Z,4.80
2023-07-25T00:47:08.734Z,5.22
2023-07-25T00:47:22.717Z,5.80
2023-07-25T00:47:34.705Z,5.57
2023-07-25T00:47:46.542Z,5.85
2023-07-25T00:47:58.325Z,5.28
2023-07-25T00:48:10.064Z,5.20
2023-07-25T00:48:22.752Z,5.55
2023-07-25T00:48:34.580Z,4.85
2023-07-25T00:48:46.569Z,4.93
2023-07-25T00:48:58.298Z,5.13
2023-07-25T00:49:10.076Z,5.03
2023-07-25T00:49:21.952Z,4.20
2023-07-25T00:49:33.636Z,4.68
2023-07-25T00:49:45.670Z,5.07
2023-07-25T00:49:57.439Z,5.65
2023-07-25T00:50:11.713Z,5.13
2023-07-25T00:50:23.520Z,4.93
2023-07-25T00:50:35.438Z,4.88
2023-07-25T00:50:47.251Z,5.40
2023-07-25T00:50:58.940Z,5.45
2023-07-25T00:51:10.669Z,4.70
2023-07-25T00:51:22.744Z,4.55
2023-07-25T00:51:35.189Z,4.88
2023-07-25T00:51:46.942Z,4.75
2023-07-25T00:51:58.624Z,4.63
2023-07-25T00:52:10.485Z,5.05
2023-07-25T00:52:23.203Z,5.80
2023-07-25T00:52:35.024Z,5.80
2023-07-25T00:52:46.729Z,5.60
2023-07-25T00:52:59.784Z,5.38
2023-07-25T00:53:11.915Z,5.15
2023-07-25T00:53:24.657Z,4.80
2023-07-25T00:53:36.809Z,4.78
2023-07-25T00:53:48.563Z,4.50
2023-07-25T00:54:01.948Z,4.82
2023-07-25T00:54:13.798Z,5.50
2023-07-25T00:54:25.509Z,5.38
2023-07-25T00:54:38.944Z,4.90
2023-07-25T00:54:51.700Z,4.50
2023-07-25T00:55:04.199Z,4.85
2023-07-25T00:55:15.970Z,4.95
2023-07-25T00:55:28.541Z,5.22
2023-07-25T00:55:40.292Z,5.40
2023-07-25T00:55:52.957Z,5.43
2023-07-25T00:56:05.387Z,5.45
2023-07-25T00:56:17.302Z,5.05
2023-07-25T00:56:29.057Z,5.40
2023-07-25T00:56:40.755Z,5.63
2023-07-25T00:56:52.471Z,5.95
2023-07-25T00:57:04.759Z,5.78
2023-07-25T00:57:17.526Z,4.95
2023-07-25T00:57:29.365Z,4.90
2023-07-25T00:57:42.066Z,5.93
2023-07-25T00:57:53.834Z,5.70
2023-07-25T00:58:05.649Z,5.80
2023-07-25T00:58:17.569Z,5.07
2023-07-25T00:58:29.827Z,5.07
2023-07-25T00:58:41.538Z,5.20
2023-07-25T00:58:53.498Z,5.45
2023-07-25T00:59:05.532Z,5.10
2023-07-25T00:59:17.425Z,5.75
2023-07-25T00:59:29.095Z,6.00
2023-07-25T00:59:41.884Z,5.85
2023-07-25T00:59:53.631Z,6.18
2023-07-25T01:00:06.912Z,6.30
2023-07-25T01:00:18.711Z,6.05
2023-07-25T01:00:30.418Z,6.05
2023-07-25T01:00:43.136Z,5.93
2023-07-25T01:01:02.552Z,5.53
2023-07-25T01:01:14.261Z,5.47
2023-07-25T01:01:26.820Z,5.47
2023-07-25T01:01:38.763Z,4.88
2023-07-25T01:01:50.545Z,5.03
2023-07-25T01:02:02.312Z,5.60
2023-07-25T01:02:14.772Z,6.88
2023-07-25T01:02:26.725Z,6.72
2023-07-25T01:02:38.582Z,5.88
2023-07-25T01:02:51.511Z,5.68
2023-07-25T01:03:03.529Z,6.22
2023-07-25T01:03:15.629Z,6.72
2023-07-25T01:03:27.464Z,6.00
2023-07-25T01:03:39.867Z,5.63
2023-07-25T01:03:54.562Z,4.97
2023-07-25T01:04:06.561Z,6.03
2023-07-25T01:04:18.583Z,6.88
2023-07-25T01:04:30.290Z,6.93
2023-07-25T01:04:42.747Z,5.68
2023-07-25T01:04:55.605Z,5.55
2023-07-25T01:05:07.620Z,5.50
2023-07-25T01:05:20.720Z,7.43
2023-07-25T01:05:34.199Z,8.13
2023-07-25T01:05:48.360Z,7.57
2023-07-25T01:06:01.416Z,7.40
2023-07-25T01:06:14.286Z,6.40
2023-07-25T01:06:26.011Z,5.38
2023-07-25T01:06:38.339Z,5.60
2023-07-25T01:06:50.602Z,5.78
2023-07-25T01:07:03.852Z,6.28
2023-07-25T01:07:16.004Z,5.75
2023-07-25T01:07:27.979Z,6.05
2023-07-25T01:07:41.224Z,6.45
2023-07-25T01:07:52.954Z,6.78
2023-07-25T01:08:05.179Z,6.55
2023-07-25T01:08:16.936Z,6.30
2023-07-25T01:08:28.647Z,5.72
2023-07-25T01:08:48.361Z,5.88
2023-07-25T01:09:01.030Z,6.20
2023-07-25T01:09:12.722Z,5.70
2023-07-25T01:09:41.218Z,5.30
2023-07-25T01:09:52.953Z,5.13
2023-07-25T01:10:05.110Z,5.40
2023-07-25T01:10:16.840Z,5.90
2023-07-25T01:10:28.521Z,6.05
2023-07-25T01:10:41.224Z,5.53
2023-07-25T01:10:52.958Z,6.28
2023-07-25T01:11:04.698Z,6.32
2023-07-25T01:11:16.543Z,6.40
2023-07-25T01:11:29.245Z,5.60
2023-07-25T01:11:41.054Z,5.80
2023-07-25T01:11:52.784Z,5.82
2023-07-25T01:12:06.201Z,6.13
2023-07-25T01:12:17.872Z,6.32
2023-07-25T01:12:29.854Z,6.38
2023-07-25T01:12:42.566Z,6.38
2023-07-25T01:12:54.251Z,5.82
2023-07-25T01:13:06.075Z,5.70
2023-07-25T01:13:17.803Z,5.97
2023-07-25T01:13:29.527Z,6.45
2023-07-25T01:13:41.292Z,6.03
2023-07-25T01:13:53.056Z,6.03
2023-07-25T01:14:04.822Z,5.82
2023-07-25T01:14:16.529Z,6.38
2023-07-25T01:14:28.245Z,6.47
2023-07-25T01:14:40.605Z,6.38
2023-07-25T01:14:53.380Z,5.95
2023-07-25T01:15:05.815Z,5.75
2023-07-25T01:15:17.817Z,6.20
2023-07-25T01:15:29.721Z,6.20
2023-07-25T01:15:41.961Z,6.30
2023-07-25T01:15:54.426Z,5.97
2023-07-25T01:16:06.596Z,6.18
2023-07-25T01:16:22.183Z,5.97
2023-07-25T01:16:34.822Z,6.00
2023-07-25T01:16:46.552Z,6.03
2023-07-25T01:16:59.048Z,5.78
2023-07-25T01:17:12.718Z,6.25
2023-07-25T01:17:26.160Z,7.03
2023-07-25T01:17:38.028Z,7.22
2023-07-25T01:17:51.378Z,6.40
2023-07-25T01:18:03.257Z,6.53
2023-07-25T01:18:15.097Z,6.85
2023-07-25T01:18:26.968Z,6.30
2023-07-25T01:18:38.809Z,6.68
2023-07-25T01:18:51.738Z,7.57
2023-07-25T01:19:03.659Z,7.88
2023-07-25T01:19:18.226Z,6.80
2023-07-25T01:19:30.955Z,5.75
2023-07-25T01:19:44.958Z,5.22
2023-07-25T01:19:58.024Z,4.75
2023-07-25T01:20:12.058Z,5.18
2023-07-25T01:20:25.535Z,5.95
2023-07-25T01:20:37.951Z,5.88
2023-07-25T01:20:49.796Z,5.20
2023-07-25T01:21:01.513Z,5.47
2023-07-25T01:21:13.604Z,5.80
2023-07-25T01:21:25.515Z,5.85
2023-07-25T01:21:37.453Z,5.82
2023-07-25T01:21:49.192Z,5.85
2023-07-25T01:22:01.142Z,5.25
2023-07-25T01:22:13.916Z,4.93
2023-07-25T01:22:26.953Z,5.25
2023-07-25T01:22:39.425Z,6.05
2023-07-25T01:22:52.185Z,6.93
2023-07-25T01:23:06.171Z,7.32
2023-07-25T01:23:18.725Z,6.65
2023-07-25T01:23:30.825Z,5.85
2023-07-25T01:23:42.924Z,5.70
2023-07-25T01:24:00.598Z,6.40
2023-07-25T01:24:13.451Z,5.88
2023-07-25T01:24:25.555Z,5.70
2023-07-25T01:24:37.871Z,5.65
2023-07-25T01:24:49.735Z,5.65
2023-07-25T01:25:01.468Z,5.80
2023-07-25T01:25:13.277Z,5.97
2023-07-25T01:25:24.976Z,5.93
2023-07-25T01:25:36.765Z,6.03
2023-07-25T01:25:48.522Z,5.80
2023-07-25T01:26:00.966Z,6.40
2023-07-25T01:26:13.658Z,6.60
2023-07-25T01:26:25.401Z,6.80
2023-07-25T01:26:37.117Z,6.55
2023-07-25T01:26:48.892Z,7.15
2023-07-25T01:27:00.617Z,7.45
2023-07-25T01:27:12.404Z,7.45
2023-07-25T01:27:24.156Z,6.55
2023-07-25T01:27:35.884Z,5.75
2023-07-25T01:27:47.799Z,6.30
2023-07-25T01:27:59.541Z,6.97
2023-07-25T01:28:11.263Z,7.40
2023-07-25T01:28:24.293Z,6.40
2023-07-25T01:28:38.325Z,5.72
2023-07-25T01:28:50.057Z,5.82
2023-07-25T01:29:01.738Z,6.22
2023-07-25T01:29:13.404Z,6.18
2023-07-25T01:29:25.156Z,6.97
2023-07-25T01:29:36.902Z,6.40
2023-07-25T01:29:48.592Z,6.40
2023-07-25T01:30:01.293Z,6.10
2023-07-25T01:30:13.069Z,6.07
2023-07-25T01:30:24.826Z,6.28
2023-07-25T01:30:36.529Z,6.63
2023-07-25T01:30:48.421Z,7.40
2023-07-25T01:31:00.227Z,7.78
2023-07-25T01:31:11.940Z,7.28
2023-07-25T01:31:23.648Z,7.72
2023-07-25T01:31:35.362Z,6.93
2023-07-25T01:31:47.091Z,6.55
2023-07-25T01:31:59.751Z,6.50
2023-07-25T01:32:11.873Z,6.68
2023-07-25T01:32:23.691Z,6.05
2023-07-25T01:32:35.627Z,6.07
2023-07-25T01:32:47.367Z,6.15
2023-07-25T01:32:59.098Z,6.13
2023-07-25T01:33:10.926Z,6.13
2023-07-25T01:33:22.656Z,5.97
2023-07-25T01:33:34.396Z,6.30
2023-07-25T01:33:47.060Z,6.65
2023-07-25T01:33:58.813Z,6.18
2023-07-25T01:34:10.606Z,5.72
2023-07-25T01:34:22.415Z,5.50
2023-07-25T01:34:34.162Z,5.55
2023-07-25T01:34:45.900Z,5.57
2023-07-25T01:34:57.718Z,5.68
2023-07-25T01:35:09.413Z,6.13
2023-07-25T01:35:21.270Z,6.40
2023-07-25T01:35:32.970Z,5.72
2023-07-25T01:35:45.661Z,6.07
2023-07-25T01:35:57.420Z,7.20
2023-07-25T01:36:09.143Z,7.40
2023-07-25T01:36:20.910Z,7.05
2023-07-25T01:36:32.605Z,5.65
2023-07-25T01:36:44.345Z,5.70
2023-07-25T01:36:56.072Z,6.03
2023-07-25T01:37:08.656Z,6.50
2023-07-25T01:37:20.960Z,6.75
2023-07-25T01:37:33.675Z,7.00
2023-07-25T01:37:45.376Z,6.55
2023-07-25T01:37:57.081Z,6.47
2023-07-25T01:38:08.838Z,7.00
2023-07-25T01:38:20.558Z,7.05
2023-07-25T01:38:32.248Z,6.20
2023-07-25T01:38:43.947Z,6.07
2023-07-25T01:38:55.670Z,6.43
2023-07-25T01:39:08.742Z,6.25
2023-07-25T01:39:21.455Z,5.57
2023-07-25T01:39:33.127Z,5.53
2023-07-25T01:39:45.115Z,5.93
2023-07-25T01:39:56.899Z,6.10
2023-07-25T01:40:09.868Z,6.28
2023-07-25T01:40:21.649Z,6.03
2023-07-25T01:40:33.355Z,5.60
2023-07-25T01:40:45.030Z,5.67
2023-07-25T01:40:56.710Z,6.00
2023-07-25T01:41:08.416Z,5.95
2023-07-25T01:41:21.116Z,5.50
2023-07-25T01:41:33.139Z,5.43
2023-07-25T01:41:45.193Z,5.30
2023-07-25T01:41:56.918Z,5.45
2023-07-25T01:42:08.626Z,5.47
2023-07-25T01:42:20.828Z,6.35
2023-07-25T01:42:32.960Z,6.85
2023-07-25T01:42:44.672Z,6.65
2023-07-25T01:42:56.411Z,6.75
2023-07-25T01:43:09.273Z,7.28
2023-07-25T01:43:21.004Z,6.90
2023-07-25T01:43:32.767Z,7.32
2023-07-25T01:43:44.434Z,7.72
2023-07-25T01:43:56.190Z,7.05
2023-07-25T01:44:07.958Z,6.15
2023-07-25T01:44:19.662Z,5.60
2023-07-25T01:44:31.411Z,5.75
2023-07-25T01:44:43.128Z,5.53
2023-07-25T01:44:55.806Z,6.15
2023-07-25T01:45:08.772Z,6.70
2023-07-25T01:45:20.698Z,8.52
2023-07-25T01:45:32.475Z,7.90
2023-07-25T01:45:44.286Z,6.97
2023-07-25T01:45:56.121Z,6.57
2023-07-25T01:46:07.893Z,6.88
2023-07-25T01:46:19.721Z,7.10
2023-07-25T01:46:31.469Z,6.95
2023-07-25T01:46:43.166Z,7.32
2023-07-25T01:46:57.125Z,8.55
2023-07-25T01:47:08.866Z,7.80
2023-07-25T01:47:26.453Z,6.78
2023-07-25T01:47:38.310Z,7.75
2023-07-25T01:47:50.152Z,8.63
2023-07-25T01:48:01.881Z,7.90
2023-07-25T01:48:13.594Z,6.43
2023-07-25T01:48:25.375Z,6.35
2023-07-25T01:48:38.037Z,6.95
2023-07-25T01:48:50.066Z,7.15
2023-07-25T01:49:01.788Z,7.35
2023-07-25T01:49:13.962Z,7.30
2023-07-25T01:49:25.673Z,7.43
2023-07-25T01:49:37.398Z,6.93
2023-07-25T01:49:49.078Z,6.82
2023-07-25T01:50:00.822Z,7.35
2023-07-25T01:50:12.530Z,7.10
2023-07-25T01:50:25.214Z,8.70
2023-07-25T01:50:36.902Z,8.68
2023-07-25T01:50:48.588Z,8.48
2023-07-25T01:51:00.290Z,6.80
2023-07-25T01:51:11.992Z,6.43
2023-07-25T01:51:23.666Z,6.45
2023-07-25T01:51:35.381Z,6.97
2023-07-25T01:51:47.084Z,7.07
2023-07-25T01:51:58.864Z,7.32
2023-07-25T01:52:11.529Z,7.13
2023-07-25T01:52:23.327Z,7.18
2023-07-25T01:52:35.054Z,8.00
2023-07-25T01:52:46.773Z,8.43
2023-07-25T01:52:58.480Z,8.20
2023-07-25T01:53:10.183Z,8.05
2023-07-25T01:53:21.889Z,7.33
2023-07-25T01:53:33.595Z,7.95
2023-07-25T01:53:45.304Z,8.75
2023-07-25T01:53:59.410Z,9.10
2023-07-25T01:54:13.461Z,8.45
2023-07-25T01:54:25.280Z,7.72
2023-07-25T01:54:37.006Z,7.15
2023-07-25T01:54:49.649Z,7.65
2023-07-25T01:55:01.387Z,8.30
2023-07-25T01:55:13.096Z,8.30
2023-07-25T01:55:24.839Z,8.05
2023-07-25T01:55:37.623Z,8.60
2023-07-25T01:55:49.324Z,8.35
2023-07-25T01:56:01.116Z,7.82
2023-07-25T01:56:13.797Z,7.82
2023-07-25T01:56:25.981Z,8.90
2023-07-25T01:56:37.746Z,9.48
2023-07-25T01:56:50.982Z,9.45
2023-07-25T01:57:02.960Z,9.60
2023-07-25T01:57:14.762Z,9.02
2023-07-25T01:57:26.532Z,8.00
2023-07-25T01:57:39.316Z,8.48
2023-07-25T01:57:51.019Z,8.73
2023-07-25T01:58:02.721Z,9.20
2023-07-25T01:58:14.439Z,8.65
2023-07-25T01:58:26.169Z,8.73
2023-07-25T01:58:37.834Z,9.32
2023-07-25T01:58:49.558Z,10.77
2023-07-25T01:59:01.280Z,10.15
2023-07-25T01:59:13.085Z,9.13
2023-07-25T01:59:25.782Z,8.60
2023-07-25T01:59:37.458Z,8.15
2023-07-25T01:59:50.273Z,8.88
2023-07-25T02:00:02.110Z,9.30
2023-07-25T02:00:14.304Z,9.27
2023-07-25T02:00:26.011Z,8.43
2023-07-25T02:00:37.686Z,8.60
2023-07-25T02:00:49.632Z,9.35
2023-07-25T02:01:02.567Z,9.40
2023-07-25T02:01:14.308Z,8.75
2023-07-25T02:01:26.082Z,8.32
2023-07-25T02:01:37.837Z,8.20
2023-07-25T02:01:49.661Z,8.10
2023-07-25T02:02:01.413Z,7.97
2023-07-25T02:02:13.182Z,7.32
2023-07-25T02:02:24.953Z,6.72
2023-07-25T02:02:36.724Z,7.20
2023-07-25T02:02:49.657Z,7.70
2023-07-25T02:03:01.464Z,7.45
2023-07-25T02:03:16.998Z,7.32
2023-07-25T02:03:29.022Z,7.15
2023-07-25T02:03:40.739Z,6.35
2023-07-25T02:03:52.500Z,6.22
2023-07-25T02:04:04.499Z,6.88
2023-07-25T02:04:16.268Z,7.32
2023-07-25T02:04:28.051Z,7.65
2023-07-25T02:04:40.806Z,7.68
2023-07-25T02:04:52.557Z,7.30
2023-07-25T02:05:05.088Z,6.88
2023-07-25T02:05:16.885Z,7.50
2023-07-25T02:05:28.615Z,7.07
2023-07-25T02:05:40.374Z,6.13
2023-07-25T02:05:52.102Z,6.32
2023-07-25T02:06:05.254Z,6.60
2023-07-25T02:06:16.956Z,7.00
2023-07-25T02:06:28.717Z,7.25
2023-07-25T02:06:41.388Z,8.00
2023-07-25T02:06:53.086Z,6.88
2023-07-25T02:07:05.379Z,6.68
2023-07-25T02:07:17.046Z,6.20
2023-07-25T02:07:28.733Z,6.60
2023-07-25T02:07:40.409Z,7.30
2023-07-25T02:07:52.808Z,7.40
2023-07-25T02:08:05.061Z,7.25
2023-07-25T02:08:16.775Z,6.63
2023-07-25T02:08:28.443Z,6.72
2023-07-25T02:08:40.191Z,6.82
2023-07-25T02:08:52.880Z,7.28
2023-07-25T02:09:04.579Z,6.95
2023-07-25T02:09:18.078Z,6.68
2023-07-25T02:09:29.777Z,7.30
2023-07-25T02:09:41.521Z,8.30
2023-07-25T02:09:53.460Z,7.85
2023-07-25T02:10:06.335Z,7.97
2023-07-25T02:10:18.420Z,7.55
2023-07-25T02:10:33.227Z,8.90
2023-07-25T02:10:44.963Z,8.43
2023-07-25T02:10:56.692Z,7.88
2023-07-25T02:11:08.629Z,8.37
2023-07-25T02:11:20.321Z,8.13
2023-07-25T02:11:32.231Z,7.70
2023-07-25T02:11:44.220Z,8.02
2023-07-25T02:11:55.933Z,8.45
2023-07-25T02:12:08.791Z,9.63
2023-07-25T02:12:20.533Z,9.32
2023-07-25T02:12:32.241Z,8.35
2023-07-25T02:12:44.938Z,8.15
2023-07-25T02:12:57.224Z,8.93
2023-07-25T02:13:09.058Z,9.23
2023-07-25T02:13:20.832Z,8.80
2023-07-25T02:13:32.671Z,8.73
2023-07-25T02:13:44.399Z,7.53
2023-07-25T02:13:56.253Z,6.93
2023-07-25T02:14:07.950Z,7.40
2023-07-25T02:14:19.718Z,8.13
2023-07-25T02:14:31.394Z,8.10
2023-07-25T02:14:43.105Z,7.60
2023-07-25T02:14:55.826Z,6.78
2023-07-25T02:15:08.733Z,6.97
2023-07-25T02:15:20.472Z,7.35
2023-07-25T02:15:32.199Z,9.18
2023-07-25T02:15:43.922Z,9.20
2023-07-25T02:15:55.668Z,7.65
2023-07-25T02:16:07.504Z,7.40
2023-07-25T02:16:19.258Z,8.45
2023-07-25T02:16:34.916Z,8.15
2023-07-25T02:16:46.719Z,7.75
2023-07-25T02:16:58.812Z,7.97
2023-07-25T02:17:10.652Z,7.72
2023-07-25T02:17:22.567Z,6.97
2023-07-25T02:17:34.333Z,6.85
2023-07-25T02:17:46.116Z,7.55
2023-07-25T02:17:57.868Z,7.70
2023-07-25T02:18:09.584Z,7.53
2023-07-25T02:18:21.310Z,6.38
2023-07-25T02:18:34.064Z,6.53
2023-07-25T02:18:45.747Z,7.70
2023-07-25T02:18:57.466Z,8.73
2023-07-25T02:19:09.276Z,8.25
2023-07-25T02:19:21.021Z,7.57
2023-07-25T02:19:32.743Z,7.13
2023-07-25T02:19:44.421Z,7.97
2023-07-25T02:19:56.116Z,7.95
2023-07-25T02:20:08.806Z,7.78
2023-07-25T02:20:21.208Z,7.97
2023-07-25T02:20:34.253Z,8.65
2023-07-25T02:20:45.976Z,8.07
2023-07-25T02:20:57.675Z,7.88
2023-07-25T02:21:09.405Z,8.05
2023-07-25T02:21:21.141Z,9.10
2023-07-25T02:21:33.241Z,9.32
2023-07-25T02:21:45.296Z,10.10
2023-07-25T02:21:57.012Z,8.63
2023-07-25T02:22:08.761Z,7.90
2023-07-25T02:22:21.451Z,7.40
2023-07-25T02:22:33.162Z,8.45
2023-07-25T02:22:44.877Z,8.60
2023-07-25T02:22:56.581Z,8.45
2023-07-25T02:23:08.690Z,7.88
2023-07-25T02:23:20.393Z,7.45
2023-07-25T02:23:32.176Z,8.65
2023-07-25T02:23:43.893Z,8.82
2023-07-25T02:23:56.584Z,9.32
2023-07-25T02:24:08.332Z,9.38
2023-07-25T02:24:21.453Z,9.50
2023-07-25T02:24:33.418Z,9.27
2023-07-25T02:24:45.211Z,8.38
2023-07-25T02:24:56.966Z,7.82
2023-07-25T02:25:09.337Z,8.40
2023-07-25T02:25:21.185Z,9.43
2023-07-25T02:25:33.089Z,9.68
2023-07-25T02:25:47.126Z,9.77
2023-07-25T02:25:58.855Z,9.45
2023-07-25T02:26:10.558Z,8.88
2023-07-25T02:26:22.253Z,8.65
2023-07-25T02:26:33.953Z,9.23
2023-07-25T02:26:45.944Z,9.52
2023-07-25T02:26:57.760Z,9.17
2023-07-25T02:27:09.593Z,9.90
2023-07-25T02:27:22.259Z,9.82
2023-07-25T02:27:34.433Z,9.23
2023-07-25T02:27:46.153Z,9.63
2023-07-25T02:27:57.875Z,9.73
2023-07-25T02:28:09.588Z,9.38
2023-07-25T02:28:21.385Z,8.77
2023-07-25T02:28:33.221Z,9.00
2023-07-25T02:28:44.917Z,9.00
2023-07-25T02:28:56.655Z,9.43
2023-07-25T02:29:08.347Z,9.52
2023-07-25T02:29:21.016Z,9.37
2023-07-25T02:29:32.728Z,9.15
2023-07-25T02:29:44.528Z,8.98
2023-07-25T02:29:56.236Z,9.10
2023-07-25T02:30:08.575Z,8.70
2023-07-25T02:30:21.148Z,9.50
2023-07-25T02:30:32.861Z,9.60
2023-07-25T02:30:46.083Z,9.10
2023-07-25T02:30:58.008Z,8.93
2023-07-25T02:31:09.801Z,8.93
2023-07-25T02:31:22.573Z,9.60
2023-07-25T02:31:34.572Z,9.48
2023-07-25T02:31:46.854Z,10.43
2023-07-25T02:31:58.570Z,11.30
2023-07-25T02:32:10.315Z,11.68
2023-07-25T02:32:22.149Z,10.70
2023-07-25T02:32:33.888Z,11.00
2023-07-25T02:32:45.687Z,11.70
2023-07-25T02:32:57.450Z,11.70
2023-07-25T02:33:09.180Z,12.35
2023-07-25T02:33:21.885Z,12.45
2023-07-25T02:33:33.590Z,11.75
2023-07-25T02:33:45.420Z,10.75
2023-07-25T02:33:57.190Z,10.85
2023-07-25T02:34:08.964Z,11.43
2023-07-25T02:34:20.677Z,11.50
2023-07-25T02:34:32.402Z,11.77
2023-07-25T02:34:44.101Z,11.85
2023-07-25T02:34:55.802Z,11.02
2023-07-25T02:35:08.760Z,11.10
2023-07-25T02:35:20.464Z,11.52
2023-07-25T02:35:32.180Z,11.52
2023-07-25T02:35:43.898Z,11.40
2023-07-25T02:35:55.629Z,11.45
2023-07-25T02:36:07.337Z,11.10
2023-07-25T02:36:19.068Z,11.30
2023-07-25T02:36:30.765Z,12.38
2023-07-25T02:36:42.503Z,12.43
2023-07-25T02:36:54.259Z,11.88
2023-07-25T02:37:06.396Z,12.00
2023-07-25T02:37:19.149Z,12.63
2023-07-25T02:37:30.912Z,12.52
2023-07-25T02:37:42.730Z,12.10
2023-07-25T02:37:54.442Z,10.73
2023-07-25T02:38:06.154Z,10.98
2023-07-25T02:38:17.845Z,10.60
2023-07-25T02:38:29.594Z,10.85
2023-07-25T02:38:42.278Z,11.18
2023-07-25T02:38:54.004Z,11.15
2023-07-25T02:39:05.814Z,11.90
2023-07-25T02:39:17.541Z,12.55
2023-07-25T02:39:30.605Z,12.60
2023-07-25T02:39:42.368Z,12.10
2023-07-25T02:39:54.132Z,11.48
2023-07-25T02:40:07.341Z,11.93
2023-07-25T02:40:19.029Z,12.38
2023-07-25T02:40:31.730Z,13.18
2023-07-25T02:40:44.948Z,13.93
2023-07-25T02:40:56.691Z,13.88
2023-07-25T02:41:08.396Z,13.25